^^
Saratoga-Weather Station Historical Data
Daily Summary for September 14, 2021 Units:  Both    English   Metric
Daily Weekly Monthly Yearly Custom
  High: Low: Average:
Temperature: 57.6 °F /  14.2 °C 41.4 °F /  5.2 °C 47.7 °F /  8.7 °C
Dew Point: 49.8 °F /  9.9 °C 40.3 °F /  4.6 °C 44.4 °F /  6.9 °C
Humidity: 97% 69% 89%
Wind Speed: 6mph /  9.7km/h - 0.6mph /  1km/h
Wind Gust: 8mph /  12.9km/h - -
Wind- - West
Pressure: 30.4 in /  1027.8 hPa 30.2 in /  1021.7 hPa -
Precipitation: 0 in /  0.0 mm    
Historical Graphs
 
 
Tabular Data for September 14, 2021
Time Temperature Dew Point Pressure Wind Wind Speed Wind Gust Humidity Rainfall Rate (Hourly) solar
00:03 44.4 °F /  6.9 °C 42.4 °F /  5.8 °C 30.4in /  1027.8hPa Calm     93% 0in /  0.0mm 0 W/m2
00:08 44.2 °F /  6.8 °C 42.3 °F /  5.7 °C 30.4in /  1027.8hPa Calm     93% 0in /  0.0mm 0 W/m2
00:13 44.1 °F /  6.7 °C 42.1 °F /  5.6 °C 30.3in /  1027.4hPa Calm     93% 0in /  0.0mm 0 W/m2
00:18 43.9 °F /  6.6 °C 41.9 °F /  5.5 °C 30.4in /  1027.8hPa Calm     93% 0in /  0.0mm 0 W/m2
00:23 43.7 °F /  6.5 °C 41.7 °F /  5.4 °C 30.3in /  1027.4hPa Calm     93% 0in /  0.0mm 0 W/m2
00:28 43.5 °F /  6.4 °C 41.7 °F /  5.4 °C 30.3in /  1027.4hPa Calm     93% 0in /  0.0mm 0 W/m2
00:33 43.3 °F /  6.3 °C 41.7 °F /  5.4 °C 30.3in /  1027.4hPa Calm     94% 0in /  0.0mm 0 W/m2
00:38 43.3 °F /  6.3 °C 41.7 °F /  5.4 °C 30.3in /  1027.4hPa Calm     94% 0in /  0.0mm 0 W/m2
00:43 43.3 °F /  6.3 °C 41.7 °F /  5.4 °C 30.3in /  1027.4hPa Calm     94% 0in /  0.0mm 0 W/m2
00:48 43.3 °F /  6.3 °C 41.7 °F /  5.4 °C 30.3in /  1027.4hPa Calm     94% 0in /  0.0mm 0 W/m2
00:53 43.3 °F /  6.3 °C 41.7 °F /  5.4 °C 30.3in /  1027.4hPa Calm     94% 0in /  0.0mm 0 W/m2
00:58 43.2 °F /  6.2 °C 41.5 °F /  5.3 °C 30.3in /  1027.4hPa Calm     94% 0in /  0.0mm 0 W/m2
01:03 43.2 °F /  6.2 °C 41.5 °F /  5.3 °C 30.3in /  1027.4hPa Calm     94% 0in /  0.0mm 0 W/m2
01:08 43 °F /  6.1 °C 41.4 °F /  5.2 °C 30.3in /  1027.4hPa Calm     94% 0in /  0.0mm 0 W/m2
01:13 43 °F /  6.1 °C 41.4 °F /  5.2 °C 30.3in /  1027.4hPa Calm     94% 0in /  0.0mm 0 W/m2
01:18 43 °F /  6.1 °C 41.4 °F /  5.2 °C 30.3in /  1027.4hPa Calm     94% 0in /  0.0mm 0 W/m2
01:23 42.8 °F /  6 °C 41.5 °F /  5.3 °C 30.3in /  1027.4hPa Calm     95% 0in /  0.0mm 0 W/m2
01:28 42.6 °F /  5.9 °C 41.4 °F /  5.2 °C 30.3in /  1027.4hPa WSW 0.9mph /  1.4km/h 2mph /  3.2km/h 95% 0in /  0.0mm 0 W/m2
01:33 42.6 °F /  5.9 °C 41.4 °F /  5.2 °C 30.3in /  1027.4hPa Calm     95% 0in /  0.0mm 0 W/m2
01:38 42.6 °F /  5.9 °C 41.4 °F /  5.2 °C 30.3in /  1027.4hPa Calm     95% 0in /  0.0mm 0 W/m2
01:43 42.4 °F /  5.8 °C 41.2 °F /  5.1 °C 30.3in /  1027.4hPa Calm     95% 0in /  0.0mm 0 W/m2
01:48 42.4 °F /  5.8 °C 41.2 °F /  5.1 °C 30.3in /  1027.4hPa Calm     95% 0in /  0.0mm 0 W/m2
01:53 42.4 °F /  5.8 °C 41.2 °F /  5.1 °C 30.3in /  1027.4hPa Calm     95% 0in /  0.0mm 0 W/m2
01:58 42.4 °F /  5.8 °C 41.2 °F /  5.1 °C 30.3in /  1027.4hPa Calm     95% 0in /  0.0mm 0 W/m2
02:03 42.4 °F /  5.8 °C 41.2 °F /  5.1 °C 30.3in /  1027.4hPa Calm     95% 0in /  0.0mm 0 W/m2
02:08 42.3 °F /  5.7 °C 41 °F /  5 °C 30.3in /  1027.4hPa Calm     95% 0in /  0.0mm 0 W/m2
02:13 42.1 °F /  5.6 °C 40.8 °F /  4.9 °C 30.3in /  1027.4hPa Calm     95% 0in /  0.0mm 0 W/m2
02:18 41.9 °F /  5.5 °C 40.6 °F /  4.8 °C 30.3in /  1027.4hPa Calm     95% 0in /  0.0mm 0 W/m2
02:23 41.7 °F /  5.4 °C 40.5 °F /  4.7 °C 30.3in /  1027.4hPa Calm     95% 0in /  0.0mm 0 W/m2
02:28 41.7 °F /  5.4 °C 40.5 °F /  4.7 °C 30.3in /  1027.4hPa Calm     95% 0in /  0.0mm 0 W/m2
02:33 41.7 °F /  5.4 °C 40.5 °F /  4.7 °C 30.3in /  1027.4hPa Calm     95% 0in /  0.0mm 0 W/m2
02:38 41.7 °F /  5.4 °C 40.5 °F /  4.7 °C 30.3in /  1027.4hPa Calm     95% 0in /  0.0mm 0 W/m2
02:43 41.7 °F /  5.4 °C 40.5 °F /  4.7 °C 30.3in /  1027.4hPa Calm     95% 0in /  0.0mm 0 W/m2
02:48 41.7 °F /  5.4 °C 40.5 °F /  4.7 °C 30.3in /  1027.4hPa Calm     95% 0in /  0.0mm 0 W/m2
02:53 41.9 °F /  5.5 °C 40.8 °F /  4.9 °C 30.3in /  1027.4hPa Calm     96% 0in /  0.0mm 0 W/m2
02:58 42.1 °F /  5.6 °C 41 °F /  5 °C 30.3in /  1027.4hPa Calm     96% 0in /  0.0mm 0 W/m2
03:03 42.1 °F /  5.6 °C 41 °F /  5 °C 30.3in /  1027.4hPa Calm     96% 0in /  0.0mm 0 W/m2
03:08 42.3 °F /  5.7 °C 41.2 °F /  5.1 °C 30.3in /  1027.4hPa Calm     96% 0in /  0.0mm 0 W/m2
03:13 42.3 °F /  5.7 °C 41.2 °F /  5.1 °C 30.3in /  1027.4hPa Calm     96% 0in /  0.0mm 0 W/m2
03:18 42.3 °F /  5.7 °C 41.2 °F /  5.1 °C 30.3in /  1027.4hPa Calm     96% 0in /  0.0mm 0 W/m2
03:23 42.4 °F /  5.8 °C 41.4 °F /  5.2 °C 30.3in /  1027.4hPa Calm     96% 0in /  0.0mm 0 W/m2
03:28 42.4 °F /  5.8 °C 41.4 °F /  5.2 °C 30.3in /  1027.4hPa Calm     96% 0in /  0.0mm 0 W/m2
03:33 42.6 °F /  5.9 °C 41.5 °F /  5.3 °C 30.3in /  1027.4hPa Calm     96% 0in /  0.0mm 0 W/m2
03:38 42.6 °F /  5.9 °C 41.5 °F /  5.3 °C 30.3in /  1027.4hPa Calm     96% 0in /  0.0mm 0 W/m2
03:43 42.8 °F /  6 °C 41.7 °F /  5.4 °C 30.3in /  1027.4hPa Calm     96% 0in /  0.0mm 0 W/m2
03:48 42.8 °F /  6 °C 41.7 °F /  5.4 °C 30.3in /  1027.4hPa Calm     96% 0in /  0.0mm 0 W/m2
03:53 42.8 °F /  6 °C 41.7 °F /  5.4 °C 30.3in /  1027.4hPa Calm     96% 0in /  0.0mm 0 W/m2
03:58 43 °F /  6.1 °C 41.9 °F /  5.5 °C 30.3in /  1027.4hPa Calm     96% 0in /  0.0mm 0 W/m2
04:03 43 °F /  6.1 °C 41.9 °F /  5.5 °C 30.3in /  1027.4hPa Calm     96% 0in /  0.0mm 0 W/m2
04:08 43 °F /  6.1 °C 41.9 °F /  5.5 °C 30.3in /  1027.1hPa Calm     96% 0in /  0.0mm 0 W/m2
04:14 43.2 °F /  6.2 °C 42.1 °F /  5.6 °C 30.3in /  1027.1hPa Calm     96% 0in /  0.0mm 0 W/m2
04:19 43.2 °F /  6.2 °C 42.1 °F /  5.6 °C 30.3in /  1027.1hPa Calm     96% 0in /  0.0mm 0 W/m2
04:24 43.2 °F /  6.2 °C 42.1 °F /  5.6 °C 30.3in /  1027.1hPa Calm     96% 0in /  0.0mm 0 W/m2
04:29 43.2 °F /  6.2 °C 42.1 °F /  5.6 °C 30.3in /  1027.1hPa Calm     96% 0in /  0.0mm 0 W/m2
04:34 43.2 °F /  6.2 °C 42.1 °F /  5.6 °C 30.3in /  1027.1hPa Calm     96% 0in /  0.0mm 0 W/m2
04:39 43.2 °F /  6.2 °C 42.1 °F /  5.6 °C 30.3in /  1027.1hPa Calm     96% 0in /  0.0mm 0 W/m2
04:44 43.3 °F /  6.3 °C 42.3 °F /  5.7 °C 30.3in /  1027.1hPa Calm     96% 0in /  0.0mm 0 W/m2
04:49 43.3 °F /  6.3 °C 42.3 °F /  5.7 °C 30.3in /  1027.1hPa Calm     96% 0in /  0.0mm 0 W/m2
04:54 43.3 °F /  6.3 °C 42.3 °F /  5.7 °C 30.3in /  1027.1hPa Calm     96% 0in /  0.0mm 0 W/m2
04:59 43.2 °F /  6.2 °C 42.1 °F /  5.6 °C 30.3in /  1027.1hPa Calm     96% 0in /  0.0mm 0 W/m2
05:04 43.2 °F /  6.2 °C 42.1 °F /  5.6 °C 30.3in /  1027.1hPa Calm     96% 0in /  0.0mm 0 W/m2
05:09 43 °F /  6.1 °C 41.9 °F /  5.5 °C 30.3in /  1027.1hPa Calm     96% 0in /  0.0mm 0 W/m2
05:14 42.6 °F /  5.9 °C 41.5 °F /  5.3 °C 30.3in /  1027.1hPa Calm     96% 0in /  0.0mm 0 W/m2
05:19 42.6 °F /  5.9 °C 41.5 °F /  5.3 °C 30.3in /  1027.1hPa Calm     96% 0in /  0.0mm 0 W/m2
05:24 42.4 °F /  5.8 °C 41.4 °F /  5.2 °C 30.3in /  1027.1hPa Calm     96% 0in /  0.0mm 0 W/m2
05:29 42.4 °F /  5.8 °C 41.4 °F /  5.2 °C 30.3in /  1027.1hPa Calm     96% 0in /  0.0mm 0 W/m2
05:34 42.4 °F /  5.8 °C 41.4 °F /  5.2 °C 30.3in /  1027.1hPa Calm     96% 0in /  0.0mm 0 W/m2
05:39 42.3 °F /  5.7 °C 41.2 °F /  5.1 °C 30.3in /  1027.1hPa Calm     96% 0in /  0.0mm 0 W/m2
05:44 42.3 °F /  5.7 °C 41.2 °F /  5.1 °C 30.3in /  1027.1hPa Calm     96% 0in /  0.0mm 0 W/m2
05:49 42.1 °F /  5.6 °C 41 °F /  5 °C 30.3in /  1027.1hPa Calm     96% 0in /  0.0mm 0 W/m2
05:54 42.1 °F /  5.6 °C 41 °F /  5 °C 30.3in /  1027.1hPa Calm     96% 0in /  0.0mm 0 W/m2
05:59 41.9 °F /  5.5 °C 40.8 °F /  4.9 °C 30.3in /  1027.1hPa Calm     96% 0in /  0.0mm 0 W/m2
06:04 41.7 °F /  5.4 °C 40.6 °F /  4.8 °C 30.3in /  1026.8hPa Calm     96% 0in /  0.0mm 0 W/m2
06:09 41.5 °F /  5.3 °C 40.5 °F /  4.7 °C 30.3in /  1027.1hPa Calm     96% 0in /  0.0mm 0 W/m2
06:14 41.4 °F /  5.2 °C 40.3 °F /  4.6 °C 30.3in /  1027.1hPa Calm     96% 0in /  0.0mm 0 W/m2
06:19 41.4 °F /  5.2 °C 40.3 °F /  4.6 °C 30.3in /  1027.1hPa Calm     96% 0in /  0.0mm 0 W/m2
06:24 41.4 °F /  5.2 °C 40.3 °F /  4.6 °C 30.3in /  1027.1hPa Calm     96% 0in /  0.0mm 0 W/m2
06:29 41.4 °F /  5.2 °C 40.3 °F /  4.6 °C 30.3in /  1027.1hPa WSW 0.9mph /  1.4km/h 1mph /  1.6km/h 96% 0in /  0.0mm 0 W/m2
06:34 41.4 °F /  5.2 °C 40.3 °F /  4.6 °C 30.3in /  1027.1hPa Calm   1mph /  1.6km/h 96% 0in /  0.0mm 0 W/m2
06:39 41.4 °F /  5.2 °C 40.3 °F /  4.6 °C 30.3in /  1027.1hPa Calm     96% 0in /  0.0mm 0 W/m2
06:44 41.4 °F /  5.2 °C 40.3 °F /  4.6 °C 30.3in /  1027.1hPa Calm   1mph /  1.6km/h 96% 0in /  0.0mm 0 W/m2
06:49 41.5 °F /  5.3 °C 40.5 °F /  4.7 °C 30.3in /  1027.1hPa Calm     96% 0in /  0.0mm 0 W/m2
06:54 41.5 °F /  5.3 °C 40.5 °F /  4.7 °C 30.3in /  1027.1hPa Calm     96% 0in /  0.0mm 0 W/m2
06:59 41.7 °F /  5.4 °C 40.6 °F /  4.8 °C 30.3in /  1027.1hPa Calm     96% 0in /  0.0mm 0 W/m2
07:04 41.9 °F /  5.5 °C 40.8 °F /  4.9 °C 30.3in /  1027.1hPa Calm     96% 0in /  0.0mm 0 W/m2
07:09 42.1 °F /  5.6 °C 41 °F /  5 °C 30.3in /  1027.1hPa Calm     96% 0in /  0.0mm 0 W/m2
07:14 42.3 °F /  5.7 °C 41.2 °F /  5.1 °C 30.3in /  1027.1hPa Calm     96% 0in /  0.0mm 0 W/m2
07:19 42.3 °F /  5.7 °C 41.2 °F /  5.1 °C 30.3in /  1027.4hPa Calm     96% 0in /  0.0mm 0 W/m2
07:24 42.3 °F /  5.7 °C 41.2 °F /  5.1 °C 30.3in /  1027.4hPa WSW 0.9mph /  1.4km/h 1mph /  1.6km/h 96% 0in /  0.0mm 0 W/m2
07:29 42.3 °F /  5.7 °C 41.2 °F /  5.1 °C 30.3in /  1027.1hPa Calm     96% 0in /  0.0mm 0 W/m2
07:34 42.3 °F /  5.7 °C 41.2 °F /  5.1 °C 30.3in /  1027.4hPa Calm     96% 0in /  0.0mm 0 W/m2
07:39 42.3 °F /  5.7 °C 41.2 °F /  5.1 °C 30.3in /  1027.4hPa Calm     96% 0in /  0.0mm 0 W/m2
07:44 42.3 °F /  5.7 °C 41.2 °F /  5.1 °C 30.3in /  1027.4hPa Calm     96% 0in /  0.0mm 0 W/m2
07:49 42.3 °F /  5.7 °C 41.2 °F /  5.1 °C 30.3in /  1027.1hPa Calm     96% 0in /  0.0mm 0 W/m2
07:54 42.3 °F /  5.7 °C 41.2 °F /  5.1 °C 30.3in /  1027.4hPa Calm     96% 0in /  0.0mm 0 W/m2
07:59 42.3 °F /  5.7 °C 41.2 °F /  5.1 °C 30.3in /  1027.4hPa Calm     96% 0in /  0.0mm 5 W/m2
08:04 42.3 °F /  5.7 °C 41.2 °F /  5.1 °C 30.3in /  1027.4hPa Calm     96% 0in /  0.0mm 7 W/m2
08:09 42.3 °F /  5.7 °C 41.2 °F /  5.1 °C 30.3in /  1027.4hPa WSW 0.9mph /  1.4km/h 2mph /  3.2km/h 96% 0in /  0.0mm 9 W/m2
08:14 42.3 °F /  5.7 °C 41.2 °F /  5.1 °C 30.3in /  1027.4hPa Calm   2mph /  3.2km/h 96% 0in /  0.0mm 9 W/m2
08:19 42.3 °F /  5.7 °C 41.2 °F /  5.1 °C 30.3in /  1027.4hPa Calm     96% 0in /  0.0mm 11 W/m2
08:24 42.3 °F /  5.7 °C 41.2 °F /  5.1 °C 30.3in /  1027.4hPa Calm   2mph /  3.2km/h 96% 0in /  0.0mm 12 W/m2
08:29 42.1 °F /  5.6 °C 41 °F /  5 °C 30.3in /  1027.4hPa Calm     96% 0in /  0.0mm 14 W/m2
08:34 41.7 °F /  5.4 °C 40.6 °F /  4.8 °C 30.3in /  1027.4hPa Calm   2mph /  3.2km/h 96% 0in /  0.0mm 21 W/m2
08:39 41.7 °F /  5.4 °C 40.6 °F /  4.8 °C 30.3in /  1027.4hPa Calm     96% 0in /  0.0mm 26 W/m2
08:44 41.7 °F /  5.4 °C 40.6 °F /  4.8 °C 30.3in /  1027.4hPa Calm   1mph /  1.6km/h 96% 0in /  0.0mm 32 W/m2
08:49 41.7 °F /  5.4 °C 40.6 °F /  4.8 °C 30.3in /  1027.1hPa SSW 0.9mph /  1.4km/h 2mph /  3.2km/h 96% 0in /  0.0mm 35 W/m2
08:54 41.9 °F /  5.5 °C 40.8 °F /  4.9 °C 30.3in /  1027.1hPa Calm   1mph /  1.6km/h 96% 0in /  0.0mm 44 W/m2
08:59 42.1 °F /  5.6 °C 41 °F /  5 °C 30.3in /  1027.1hPa Calm   2mph /  3.2km/h 96% 0in /  0.0mm 46 W/m2
09:04 42.3 °F /  5.7 °C 41.5 °F /  5.3 °C 30.3in /  1027.4hPa WNW 0.9mph /  1.4km/h 2mph /  3.2km/h 97% 0in /  0.0mm 54 W/m2
09:09 42.3 °F /  5.7 °C 41.5 °F /  5.3 °C 30.3in /  1027.4hPa Calm   1mph /  1.6km/h 97% 0in /  0.0mm 62 W/m2
09:14 42.4 °F /  5.8 °C 41.7 °F /  5.4 °C 30.3in /  1027.4hPa Calm     97% 0in /  0.0mm 72 W/m2
09:19 42.4 °F /  5.8 °C 41.4 °F /  5.2 °C 30.3in /  1027.4hPa WSW 0.9mph /  1.4km/h 2mph /  3.2km/h 96% 0in /  0.0mm 77 W/m2
09:24 42.6 °F /  5.9 °C 41.5 °F /  5.3 °C 30.3in /  1027.1hPa Calm     96% 0in /  0.0mm 74 W/m2
09:29 42.8 °F /  6 °C 42.1 °F /  5.6 °C 30.3in /  1027.4hPa Calm   2mph /  3.2km/h 97% 0in /  0.0mm 74 W/m2
09:34 43.2 °F /  6.2 °C 42.4 °F /  5.8 °C 30.3in /  1027.4hPa Calm     97% 0in /  0.0mm 72 W/m2
09:39 43.3 °F /  6.3 °C 42.6 °F /  5.9 °C 30.3in /  1027.4hPa Calm     97% 0in /  0.0mm 79 W/m2
09:44 43.5 °F /  6.4 °C 42.8 °F /  6 °C 30.3in /  1027.4hPa Calm     97% 0in /  0.0mm 93 W/m2
09:49 43.9 °F /  6.6 °C 43.2 °F /  6.2 °C 30.3in /  1027.4hPa Calm     97% 0in /  0.0mm 97 W/m2
09:54 44.1 °F /  6.7 °C 43.3 °F /  6.3 °C 30.3in /  1027.4hPa Calm   1mph /  1.6km/h 97% 0in /  0.0mm 95 W/m2
10:00 44.2 °F /  6.8 °C 43.5 °F /  6.4 °C 30.3in /  1027.4hPa Calm     97% 0in /  0.0mm 84 W/m2
10:05 44.4 °F /  6.9 °C 43.7 °F /  6.5 °C 30.3in /  1027.4hPa Calm     97% 0in /  0.0mm 84 W/m2
10:10 44.6 °F /  7 °C 43.9 °F /  6.6 °C 30.3in /  1027.4hPa WSW 0.9mph /  1.4km/h 2mph /  3.2km/h 97% 0in /  0.0mm 104 W/m2
10:15 45 °F /  7.2 °C 44.2 °F /  6.8 °C 30.3in /  1027.1hPa Calm   2mph /  3.2km/h 97% 0in /  0.0mm 90 W/m2
10:20 45.1 °F /  7.3 °C 44.4 °F /  6.9 °C 30.3in /  1027.4hPa Calm     97% 0in /  0.0mm 111 W/m2
10:25 45.5 °F /  7.5 °C 44.8 °F /  7.1 °C 30.3in /  1027.4hPa Calm   1mph /  1.6km/h 97% 0in /  0.0mm 98 W/m2
10:30 46 °F /  7.8 °C 45.3 °F /  7.4 °C 30.3in /  1027.4hPa Calm     97% 0in /  0.0mm 267 W/m2
10:35 46.8 °F /  8.2 °C 46 °F /  7.8 °C 30.3in /  1027.4hPa Calm     97% 0in /  0.0mm 313 W/m2
10:40 47.1 °F /  8.4 °C 46.4 °F /  8 °C 30.3in /  1027.4hPa Calm     97% 0in /  0.0mm 325 W/m2
10:45 47.8 °F /  8.8 °C 46.9 °F /  8.3 °C 30.3in /  1027.4hPa WSW 2mph /  3.2km/h 2mph /  3.2km/h 97% 0in /  0.0mm 329 W/m2
10:50 48 °F /  8.9 °C 47.1 °F /  8.4 °C 30.3in /  1027.4hPa WNW 2mph /  3.2km/h 3mph /  4.8km/h 97% 0in /  0.0mm 330 W/m2
10:55 48.4 °F /  9.1 °C 47.5 °F /  8.6 °C 30.3in /  1027.1hPa WNW 0.9mph /  1.4km/h 3mph /  4.8km/h 97% 0in /  0.0mm 341 W/m2
11:00 48.7 °F /  9.3 °C 47.7 °F /  8.7 °C 30.3in /  1027.4hPa WSW 2.9mph /  4.7km/h 4mph /  6.4km/h 96% 0in /  0.0mm 352 W/m2
11:05 49.5 °F /  9.7 °C 48 °F /  8.9 °C 30.3in /  1027.4hPa West 2.9mph /  4.7km/h 4mph /  6.4km/h 95% 0in /  0.0mm 364 W/m2
11:10 49.8 °F /  9.9 °C 47.8 °F /  8.8 °C 30.3in /  1027.4hPa West 2mph /  3.2km/h 7mph /  11.3km/h 93% 0in /  0.0mm 309 W/m2
11:15 50.4 °F /  10.2 °C 47.8 °F /  8.8 °C 30.3in /  1027.4hPa WNW 2mph /  3.2km/h 3mph /  4.8km/h 91% 0in /  0.0mm 396 W/m2
11:20 50.7 °F /  10.4 °C 47.7 °F /  8.7 °C 30.3in /  1027.4hPa NW 4mph /  6.4km/h 6mph /  9.7km/h 89% 0in /  0.0mm 323 W/m2
11:25 51.1 °F /  10.6 °C 47.7 °F /  8.7 °C 30.3in /  1027.1hPa WNW 4.9mph /  7.9km/h 5mph /  8km/h 88% 0in /  0.0mm 172 W/m2
11:30 51.3 °F /  10.7 °C 47.3 °F /  8.5 °C 30.3in /  1027.1hPa NW 2mph /  3.2km/h 4mph /  6.4km/h 86% 0in /  0.0mm 148 W/m2
11:35 51.6 °F /  10.9 °C 47.3 °F /  8.5 °C 30.3in /  1027.1hPa WNW 2.9mph /  4.7km/h 3mph /  4.8km/h 85% 0in /  0.0mm 422 W/m2
11:40 52 °F /  11.1 °C 47.3 °F /  8.5 °C 30.3in /  1027.1hPa SW 4mph /  6.4km/h 4mph /  6.4km/h 84% 0in /  0.0mm 427 W/m2
11:45 52.2 °F /  11.2 °C 47.1 °F /  8.4 °C 30.3in /  1027.1hPa WSW 0.9mph /  1.4km/h 2mph /  3.2km/h 83% 0in /  0.0mm 438 W/m2
11:50 52.3 °F /  11.3 °C 47.3 °F /  8.5 °C 30.3in /  1027.1hPa SW 2mph /  3.2km/h 4mph /  6.4km/h 83% 0in /  0.0mm 56 W/m2
11:55 52.3 °F /  11.3 °C 46.9 °F /  8.3 °C 30.3in /  1027.1hPa SW 2mph /  3.2km/h 3mph /  4.8km/h 82% 0in /  0.0mm 49 W/m2
12:00 52.3 °F /  11.3 °C 46.9 °F /  8.3 °C 30.3in /  1027.1hPa Calm   4mph /  6.4km/h 82% 0in /  0.0mm 53 W/m2
12:05 52.5 °F /  11.4 °C 47.1 °F /  8.4 °C 30.3in /  1027.1hPa WNW 0.9mph /  1.4km/h 7mph /  11.3km/h 82% 0in /  0.0mm 47 W/m2
12:10 52.5 °F /  11.4 °C 47.1 °F /  8.4 °C 30.3in /  1027.1hPa WSW 2mph /  3.2km/h 6mph /  9.7km/h 82% 0in /  0.0mm 46 W/m2
12:15 52.9 °F /  11.6 °C 47.3 °F /  8.5 °C 30.3in /  1027.1hPa WSW 2mph /  3.2km/h 6mph /  9.7km/h 81% 0in /  0.0mm 46 W/m2
12:20 53.1 °F /  11.7 °C 47.3 °F /  8.5 °C 30.3in /  1027.1hPa WNW 2mph /  3.2km/h 4mph /  6.4km/h 81% 0in /  0.0mm 46 W/m2
12:25 53.1 °F /  11.7 °C 47.3 °F /  8.5 °C 30.3in /  1027.1hPa West 4mph /  6.4km/h 4mph /  6.4km/h 81% 0in /  0.0mm 46 W/m2
12:30 53.2 °F /  11.8 °C 47.5 °F /  8.6 °C 30.3in /  1027.1hPa NNW 0.9mph /  1.4km/h 3mph /  4.8km/h 81% 0in /  0.0mm 144 W/m2
12:35 53.4 °F /  11.9 °C 47.5 °F /  8.6 °C 30.3in /  1027.1hPa WNW 4mph /  6.4km/h 7mph /  11.3km/h 80% 0in /  0.0mm 107 W/m2
12:40 53.6 °F /  12 °C 47.3 °F /  8.5 °C 30.3in /  1027.1hPa NNW 2.9mph /  4.7km/h 7mph /  11.3km/h 79% 0in /  0.0mm 272 W/m2
12:45 54 °F /  12.2 °C 46.9 °F /  8.3 °C 30.3in /  1027.1hPa WNW 4.9mph /  7.9km/h 5mph /  8km/h 77% 0in /  0.0mm 97 W/m2
12:50 54 °F /  12.2 °C 47.3 °F /  8.5 °C 30.3in /  1026.8hPa WNW 2.9mph /  4.7km/h 8mph /  12.9km/h 78% 0in /  0.0mm 441 W/m2
12:55 54.3 °F /  12.4 °C 47.7 °F /  8.7 °C 30.3in /  1026.8hPa West 2mph /  3.2km/h 7mph /  11.3km/h 78% 0in /  0.0mm 513 W/m2
13:00 54.3 °F /  12.4 °C 47.7 °F /  8.7 °C 30.3in /  1026.8hPa West 6mph /  9.7km/h 8mph /  12.9km/h 78% 0in /  0.0mm 517 W/m2
13:05 54.5 °F /  12.5 °C 47.5 °F /  8.6 °C 30.3in /  1026.8hPa WSW 0.9mph /  1.4km/h 7mph /  11.3km/h 77% 0in /  0.0mm 348 W/m2
13:10 54.3 °F /  12.4 °C 47.3 °F /  8.5 °C 30.3in /  1026.8hPa West 0.9mph /  1.4km/h 3mph /  4.8km/h 77% 0in /  0.0mm 199 W/m2
13:15 54.3 °F /  12.4 °C 47.3 °F /  8.5 °C 30.3in /  1026.4hPa WSW 4mph /  6.4km/h 6mph /  9.7km/h 77% 0in /  0.0mm 51 W/m2
13:20 54.3 °F /  12.4 °C 47.3 °F /  8.5 °C 30.3in /  1026.4hPa WSW 4mph /  6.4km/h 7mph /  11.3km/h 77% 0in /  0.0mm 56 W/m2
13:25 54.7 °F /  12.6 °C 47.7 °F /  8.7 °C 30.3in /  1026.4hPa WSW 4.9mph /  7.9km/h 5mph /  8km/h 77% 0in /  0.0mm 58 W/m2
13:30 54.7 °F /  12.6 °C 47.7 °F /  8.7 °C 30.3in /  1026.4hPa SW 2.9mph /  4.7km/h 7mph /  11.3km/h 77% 0in /  0.0mm 216 W/m2
13:35 54.9 °F /  12.7 °C 48.2 °F /  9 °C 30.3in /  1026.4hPa NW 2mph /  3.2km/h 3mph /  4.8km/h 78% 0in /  0.0mm 520 W/m2
13:40 55.2 °F /  12.9 °C 48.2 °F /  9 °C 30.3in /  1026.1hPa West 6mph /  9.7km/h 6mph /  9.7km/h 77% 0in /  0.0mm 492 W/m2
13:45 55.2 °F /  12.9 °C 48.2 °F /  9 °C 30.3in /  1026.1hPa WNW 4.9mph /  7.9km/h 5mph /  8km/h 77% 0in /  0.0mm 53 W/m2
13:50 55.2 °F /  12.9 °C 48.2 °F /  9 °C 30.3in /  1026.1hPa WNW 2mph /  3.2km/h 2mph /  3.2km/h 77% 0in /  0.0mm 49 W/m2
13:55 55.2 °F /  12.9 °C 48.2 °F /  9 °C 30.3in /  1025.7hPa NW 4mph /  6.4km/h 6mph /  9.7km/h 77% 0in /  0.0mm 49 W/m2
14:01 55.6 °F /  13.1 °C 48.6 °F /  9.2 °C 30.3in /  1025.7hPa WSW 2.9mph /  4.7km/h 3mph /  4.8km/h 77% 0in /  0.0mm 51 W/m2
14:06 55.8 °F /  13.2 °C 48.7 °F /  9.3 °C 30.3in /  1025.7hPa NW 2mph /  3.2km/h 5mph /  8km/h 77% 0in /  0.0mm 53 W/m2
14:11 55.9 °F /  13.3 °C 48.6 °F /  9.2 °C 30.3in /  1025.7hPa WSW 4.9mph /  7.9km/h 5mph /  8km/h 76% 0in /  0.0mm 51 W/m2
14:16 55.9 °F /  13.3 °C 48.2 °F /  9 °C 30.3in /  1025.7hPa Calm   2mph /  3.2km/h 75% 0in /  0.0mm 51 W/m2
14:21 55.9 °F /  13.3 °C 48.6 °F /  9.2 °C 30.3in /  1025.7hPa NW 0.9mph /  1.4km/h 2mph /  3.2km/h 76% 0in /  0.0mm 51 W/m2
14:26 55.9 °F /  13.3 °C 47.5 °F /  8.6 °C 30.3in /  1025.4hPa West 2mph /  3.2km/h 6mph /  9.7km/h 73% 0in /  0.0mm 56 W/m2
14:31 56.3 °F /  13.5 °C 48.2 °F /  9 °C 30.3in /  1025.4hPa NE 2mph /  3.2km/h 4mph /  6.4km/h 74% 0in /  0.0mm 54 W/m2
14:36 56.7 °F /  13.7 °C 48 °F /  8.9 °C 30.3in /  1025.4hPa NNW 2mph /  3.2km/h 4mph /  6.4km/h 73% 0in /  0.0mm 53 W/m2
14:41 56.8 °F /  13.8 °C 47.8 °F /  8.8 °C 30.3in /  1025.4hPa WNW 4mph /  6.4km/h 4mph /  6.4km/h 72% 0in /  0.0mm 51 W/m2
14:46 57 °F /  13.9 °C 48 °F /  8.9 °C 30.3in /  1025.4hPa WNW 0.9mph /  1.4km/h 3mph /  4.8km/h 72% 0in /  0.0mm 51 W/m2
14:51 57 °F /  13.9 °C 48 °F /  8.9 °C 30.3in /  1025.1hPa WNW 0.9mph /  1.4km/h 2mph /  3.2km/h 72% 0in /  0.0mm 51 W/m2
14:56 56.8 °F /  13.8 °C 47.5 °F /  8.6 °C 30.3in /  1025.1hPa WSW 2mph /  3.2km/h 5mph /  8km/h 71% 0in /  0.0mm 51 W/m2
15:01 56.8 °F /  13.8 °C 47.5 °F /  8.6 °C 30.3in /  1025.1hPa WSW 2mph /  3.2km/h 3mph /  4.8km/h 71% 0in /  0.0mm 51 W/m2
15:06 57 °F /  13.9 °C 47.7 °F /  8.7 °C 30.3in /  1025.1hPa WNW 0.9mph /  1.4km/h 2mph /  3.2km/h 71% 0in /  0.0mm 49 W/m2
15:11 57 °F /  13.9 °C 47.7 °F /  8.7 °C 30.3in /  1025.1hPa West 2mph /  3.2km/h 4mph /  6.4km/h 71% 0in /  0.0mm 54 W/m2
15:16 57 °F /  13.9 °C 47.3 °F /  8.5 °C 30.3in /  1025.1hPa West 2mph /  3.2km/h 2mph /  3.2km/h 70% 0in /  0.0mm 77 W/m2
15:21 57.4 °F /  14.1 °C 47.7 °F /  8.7 °C 30.3in /  1025.1hPa WSW 2.9mph /  4.7km/h 4mph /  6.4km/h 70% 0in /  0.0mm 111 W/m2
15:26 57.4 °F /  14.1 °C 47.3 °F /  8.5 °C 30.3in /  1025.1hPa WNW 2.9mph /  4.7km/h 4mph /  6.4km/h 69% 0in /  0.0mm 49 W/m2
15:31 57.6 °F /  14.2 °C 47.5 °F /  8.6 °C 30.3in /  1025.1hPa West 0.9mph /  1.4km/h 3mph /  4.8km/h 69% 0in /  0.0mm 53 W/m2
15:36 57.6 °F /  14.2 °C 47.5 °F /  8.6 °C 30.3in /  1024.7hPa West 2mph /  3.2km/h 4mph /  6.4km/h 69% 0in /  0.0mm 47 W/m2
15:41 57.6 °F /  14.2 °C 47.5 °F /  8.6 °C 30.3in /  1024.7hPa West 2mph /  3.2km/h 3mph /  4.8km/h 69% 0in /  0.0mm 49 W/m2
15:46 57.4 °F /  14.1 °C 47.7 °F /  8.7 °C 30.3in /  1024.7hPa WNW 0.9mph /  1.4km/h 4mph /  6.4km/h 70% 0in /  0.0mm 49 W/m2
15:51 57.4 °F /  14.1 °C 47.7 °F /  8.7 °C 30.3in /  1024.7hPa WNW 0.9mph /  1.4km/h 2mph /  3.2km/h 70% 0in /  0.0mm 49 W/m2
15:56 57.4 °F /  14.1 °C 47.3 °F /  8.5 °C 30.3in /  1024.4hPa West 0.9mph /  1.4km/h 2mph /  3.2km/h 69% 0in /  0.0mm 49 W/m2
16:01 57.2 °F /  14 °C 47.5 °F /  8.6 °C 30.3in /  1024.4hPa West 0.9mph /  1.4km/h 2mph /  3.2km/h 70% 0in /  0.0mm 44 W/m2
16:06 57 °F /  13.9 °C 48 °F /  8.9 °C 30.3in /  1024.4hPa West 0.9mph /  1.4km/h 3mph /  4.8km/h 72% 0in /  0.0mm 139 W/m2
16:11 57.4 °F /  14.1 °C 48 °F /  8.9 °C 30.3in /  1024.4hPa Calm   2mph /  3.2km/h 71% 0in /  0.0mm 46 W/m2
16:16 57.4 °F /  14.1 °C 48 °F /  8.9 °C 30.3in /  1024.4hPa West 0.9mph /  1.4km/h 3mph /  4.8km/h 71% 0in /  0.0mm 42 W/m2
16:21 57.2 °F /  14 °C 48.2 °F /  9 °C 30.2in /  1024.0hPa WSW 2mph /  3.2km/h 3mph /  4.8km/h 72% 0in /  0.0mm 42 W/m2
16:26 57 °F /  13.9 °C 48.4 °F /  9.1 °C 30.2in /  1024.0hPa Calm     73% 0in /  0.0mm 39 W/m2
16:31 57 °F /  13.9 °C 48.4 °F /  9.1 °C 30.2in /  1024.0hPa Calm   2mph /  3.2km/h 73% 0in /  0.0mm 42 W/m2
16:36 57.2 °F /  14 °C 48.2 °F /  9 °C 30.2in /  1024.0hPa WSW 2mph /  3.2km/h 3mph /  4.8km/h 72% 0in /  0.0mm 241 W/m2
16:41 57.4 °F /  14.1 °C 48.4 °F /  9.1 °C 30.2in /  1024.0hPa WSW 2mph /  3.2km/h 3mph /  4.8km/h 72% 0in /  0.0mm 46 W/m2
16:46 57.6 °F /  14.2 °C 48.6 °F /  9.2 °C 30.2in /  1024.0hPa Calm   1mph /  1.6km/h 72% 0in /  0.0mm 113 W/m2
16:51 57.6 °F /  14.2 °C 48.6 °F /  9.2 °C 30.2in /  1023.7hPa Calm   2mph /  3.2km/h 72% 0in /  0.0mm 234 W/m2
16:56 57.6 °F /  14.2 °C 48.9 °F /  9.4 °C 30.2in /  1024.0hPa WNW 0.9mph /  1.4km/h 1mph /  1.6km/h 73% 0in /  0.0mm 241 W/m2
17:01 57.6 °F /  14.2 °C 49.3 °F /  9.6 °C 30.2in /  1023.7hPa Calm   2mph /  3.2km/h 74% 0in /  0.0mm 104 W/m2
17:06 57.2 °F /  14 °C 49.6 °F /  9.8 °C 30.2in /  1023.7hPa Calm     76% 0in /  0.0mm 40 W/m2
17:11 56.8 °F /  13.8 °C 49.6 °F /  9.8 °C 30.2in /  1023.7hPa WSW 0.9mph /  1.4km/h 2mph /  3.2km/h 77% 0in /  0.0mm 40 W/m2
17:16 56.5 °F /  13.6 °C 49.3 °F /  9.6 °C 30.2in /  1023.7hPa WSW 0.9mph /  1.4km/h 2mph /  3.2km/h 77% 0in /  0.0mm 37 W/m2
17:21 56.1 °F /  13.4 °C 49.3 °F /  9.6 °C 30.2in /  1023.7hPa Calm   2mph /  3.2km/h 78% 0in /  0.0mm 35 W/m2
17:26 55.9 °F /  13.3 °C 49.8 °F /  9.9 °C 30.2in /  1023.7hPa Calm     80% 0in /  0.0mm 37 W/m2
17:31 55.8 °F /  13.2 °C 49.6 °F /  9.8 °C 30.2in /  1023.7hPa Calm   2mph /  3.2km/h 80% 0in /  0.0mm 37 W/m2
17:36 55.6 °F /  13.1 °C 49.8 °F /  9.9 °C 30.2in /  1023.7hPa Calm     81% 0in /  0.0mm 40 W/m2
17:41 55.2 °F /  12.9 °C 49.5 °F /  9.7 °C 30.2in /  1023.7hPa Calm     81% 0in /  0.0mm 40 W/m2
17:46 55 °F /  12.8 °C 49.3 °F /  9.6 °C 30.2in /  1023.7hPa Calm     81% 0in /  0.0mm 37 W/m2
17:51 54.9 °F /  12.7 °C 49.5 °F /  9.7 °C 30.2in /  1023.4hPa Calm     82% 0in /  0.0mm 35 W/m2
17:56 54.9 °F /  12.7 °C 49.5 °F /  9.7 °C 30.2in /  1023.4hPa WSW 0.9mph /  1.4km/h 1mph /  1.6km/h 82% 0in /  0.0mm 35 W/m2
18:01 54.7 °F /  12.6 °C 49.6 °F /  9.8 °C 30.2in /  1023.4hPa WSW 0.9mph /  1.4km/h 1mph /  1.6km/h 83% 0in /  0.0mm 33 W/m2
18:06 54.3 °F /  12.4 °C 49.3 °F /  9.6 °C 30.2in /  1023.4hPa Calm   1mph /  1.6km/h 83% 0in /  0.0mm 28 W/m2
18:12 54.1 °F /  12.3 °C 49.1 °F /  9.5 °C 30.2in /  1023.4hPa Calm     83% 0in /  0.0mm 25 W/m2
18:17 54.1 °F /  12.3 °C 49.5 °F /  9.7 °C 30.2in /  1023.4hPa WSW 2mph /  3.2km/h 2mph /  3.2km/h 84% 0in /  0.0mm 21 W/m2
18:22 54 °F /  12.2 °C 49.3 °F /  9.6 °C 30.2in /  1023.4hPa WSW 0.9mph /  1.4km/h 2mph /  3.2km/h 84% 0in /  0.0mm 18 W/m2
18:27 53.8 °F /  12.1 °C 49.1 °F /  9.5 °C 30.2in /  1023.4hPa Calm   1mph /  1.6km/h 84% 0in /  0.0mm 16 W/m2
18:32 53.6 °F /  12 °C 48.9 °F /  9.4 °C 30.2in /  1023.4hPa WSW 0.9mph /  1.4km/h 1mph /  1.6km/h 84% 0in /  0.0mm 12 W/m2
18:37 53.2 °F /  11.8 °C 48.6 °F /  9.2 °C 30.2in /  1023.4hPa WSW 0.9mph /  1.4km/h 2mph /  3.2km/h 84% 0in /  0.0mm 11 W/m2
18:42 53.1 °F /  11.7 °C 48.7 °F /  9.3 °C 30.2in /  1023.4hPa WSW 2mph /  3.2km/h 2mph /  3.2km/h 85% 0in /  0.0mm 7 W/m2
18:47 52.9 °F /  11.6 °C 48.6 °F /  9.2 °C 30.2in /  1023.4hPa WSW 2mph /  3.2km/h 2mph /  3.2km/h 85% 0in /  0.0mm 5 W/m2
18:52 52.3 °F /  11.3 °C 48.2 °F /  9 °C 30.2in /  1023.4hPa WSW 2mph /  3.2km/h 2mph /  3.2km/h 86% 0in /  0.0mm 0 W/m2
18:57 52.2 °F /  11.2 °C 48 °F /  8.9 °C 30.2in /  1023.4hPa WSW 0.9mph /  1.4km/h 1mph /  1.6km/h 86% 0in /  0.0mm 0 W/m2
19:02 52 °F /  11.1 °C 48.2 °F /  9 °C 30.2in /  1023.4hPa WSW 0.9mph /  1.4km/h 2mph /  3.2km/h 87% 0in /  0.0mm 0 W/m2
19:07 51.6 °F /  10.9 °C 47.8 °F /  8.8 °C 30.2in /  1023.4hPa Calm   1mph /  1.6km/h 87% 0in /  0.0mm 0 W/m2
19:12 51.4 °F /  10.8 °C 47.7 °F /  8.7 °C 30.2in /  1023.0hPa WSW 0.9mph /  1.4km/h 1mph /  1.6km/h 87% 0in /  0.0mm 0 W/m2
19:17 51.3 °F /  10.7 °C 47.8 °F /  8.8 °C 30.2in /  1023.0hPa Calm     88% 0in /  0.0mm 0 W/m2
19:22 51.1 °F /  10.6 °C 47.7 °F /  8.7 °C 30.2in /  1023.0hPa WSW 0.9mph /  1.4km/h 2mph /  3.2km/h 88% 0in /  0.0mm 0 W/m2
19:27 50.9 °F /  10.5 °C 47.5 °F /  8.6 °C 30.2in /  1023.0hPa Calm   1mph /  1.6km/h 88% 0in /  0.0mm 0 W/m2
19:32 50.7 °F /  10.4 °C 47.3 °F /  8.5 °C 30.2in /  1023.0hPa Calm   1mph /  1.6km/h 88% 0in /  0.0mm 0 W/m2
19:37 50.5 °F /  10.3 °C 47.1 °F /  8.4 °C 30.2in /  1023.0hPa Calm     88% 0in /  0.0mm 0 W/m2
19:42 50.4 °F /  10.2 °C 46.9 °F /  8.3 °C 30.2in /  1023.0hPa Calm     88% 0in /  0.0mm 0 W/m2
19:47 50.2 °F /  10.1 °C 46.8 °F /  8.2 °C 30.2in /  1023.0hPa Calm     88% 0in /  0.0mm 0 W/m2
19:52 49.6 °F /  9.8 °C 46.6 °F /  8.1 °C 30.2in /  1023.0hPa Calm     89% 0in /  0.0mm 0 W/m2
19:57 49.5 °F /  9.7 °C 46.4 °F /  8 °C 30.2in /  1023.0hPa Calm     89% 0in /  0.0mm 0 W/m2
20:02 49.3 °F /  9.6 °C 46.2 °F /  7.9 °C 30.2in /  1023.0hPa Calm     89% 0in /  0.0mm 0 W/m2
20:07 48.9 °F /  9.4 °C 45.9 °F /  7.7 °C 30.2in /  1023.0hPa Calm     89% 0in /  0.0mm 0 W/m2
20:12 48.7 °F /  9.3 °C 45.9 °F /  7.7 °C 30.2in /  1023.0hPa Calm     90% 0in /  0.0mm 0 W/m2
20:17 48.4 °F /  9.1 °C 45.5 °F /  7.5 °C 30.2in /  1023.0hPa Calm     90% 0in /  0.0mm 0 W/m2
20:22 48 °F /  8.9 °C 45.1 °F /  7.3 °C 30.2in /  1022.7hPa Calm     90% 0in /  0.0mm 0 W/m2
20:27 47.8 °F /  8.8 °C 45.3 °F /  7.4 °C 30.2in /  1022.7hPa Calm     91% 0in /  0.0mm 0 W/m2
20:32 47.8 °F /  8.8 °C 45.3 °F /  7.4 °C 30.2in /  1022.7hPa Calm     91% 0in /  0.0mm 0 W/m2
20:37 47.5 °F /  8.6 °C 45 °F /  7.2 °C 30.2in /  1022.7hPa Calm     91% 0in /  0.0mm 0 W/m2
20:42 47.3 °F /  8.5 °C 44.8 °F /  7.1 °C 30.2in /  1022.7hPa Calm     91% 0in /  0.0mm 0 W/m2
20:47 47.1 °F /  8.4 °C 44.6 °F /  7 °C 30.2in /  1022.7hPa Calm     91% 0in /  0.0mm 0 W/m2
20:52 46.9 °F /  8.3 °C 44.4 °F /  6.9 °C 30.2in /  1022.7hPa Calm     91% 0in /  0.0mm 0 W/m2
20:57 46.8 °F /  8.2 °C 44.2 °F /  6.8 °C 30.2in /  1022.7hPa Calm     91% 0in /  0.0mm 0 W/m2
21:02 46.6 °F /  8.1 °C 44.4 °F /  6.9 °C 30.2in /  1022.7hPa Calm     92% 0in /  0.0mm 0 W/m2
21:07 46.2 °F /  7.9 °C 44.1 °F /  6.7 °C 30.2in /  1022.7hPa Calm     92% 0in /  0.0mm 0 W/m2
21:12 46.2 °F /  7.9 °C 44.1 °F /  6.7 °C 30.2in /  1022.4hPa Calm     92% 0in /  0.0mm 0 W/m2
21:17 46 °F /  7.8 °C 43.9 °F /  6.6 °C 30.2in /  1022.4hPa Calm     92% 0in /  0.0mm 0 W/m2
21:22 45.9 °F /  7.7 °C 43.9 °F /  6.6 °C 30.2in /  1022.4hPa Calm     93% 0in /  0.0mm 0 W/m2
21:27 45.9 °F /  7.7 °C 43.9 °F /  6.6 °C 30.2in /  1022.4hPa Calm     93% 0in /  0.0mm 0 W/m2
21:32 45.7 °F /  7.6 °C 43.7 °F /  6.5 °C 30.2in /  1022.4hPa Calm     93% 0in /  0.0mm 0 W/m2
21:37 45.7 °F /  7.6 °C 43.7 °F /  6.5 °C 30.2in /  1022.4hPa Calm     93% 0in /  0.0mm 0 W/m2
21:42 45.5 °F /  7.5 °C 43.5 °F /  6.4 °C 30.2in /  1022.4hPa Calm     93% 0in /  0.0mm 0 W/m2
21:47 45.5 °F /  7.5 °C 43.5 °F /  6.4 °C 30.2in /  1022.4hPa Calm     93% 0in /  0.0mm 0 W/m2
21:52 45.3 °F /  7.4 °C 43.7 °F /  6.5 °C 30.2in /  1022.4hPa Calm     94% 0in /  0.0mm 0 W/m2
21:57 45.3 °F /  7.4 °C 43.7 °F /  6.5 °C 30.2in /  1022.4hPa Calm     94% 0in /  0.0mm 0 W/m2
22:02 45.3 °F /  7.4 °C 43.7 °F /  6.5 °C 30.2in /  1022.4hPa Calm     94% 0in /  0.0mm 0 W/m2
22:07 45.3 °F /  7.4 °C 43.7 °F /  6.5 °C 30.2in /  1022.4hPa Calm     94% 0in /  0.0mm 0 W/m2
22:12 45.1 °F /  7.3 °C 43.5 °F /  6.4 °C 30.2in /  1022.4hPa Calm     94% 0in /  0.0mm 0 W/m2
22:17 45.1 °F /  7.3 °C 43.5 °F /  6.4 °C 30.2in /  1022.4hPa Calm     94% 0in /  0.0mm 0 W/m2
22:22 45 °F /  7.2 °C 43.3 °F /  6.3 °C 30.2in /  1022.4hPa Calm     94% 0in /  0.0mm 0 W/m2
22:27 44.8 °F /  7.1 °C 43.2 °F /  6.2 °C 30.2in /  1022.4hPa Calm     94% 0in /  0.0mm 0 W/m2
22:32 44.6 °F /  7 °C 43 °F /  6.1 °C 30.2in /  1022.4hPa Calm     94% 0in /  0.0mm 0 W/m2
22:37 44.4 °F /  6.9 °C 42.8 °F /  6 °C 30.2in /  1022.4hPa Calm     94% 0in /  0.0mm 0 W/m2
22:42 44.4 °F /  6.9 °C 42.8 °F /  6 °C 30.2in /  1022.4hPa Calm     94% 0in /  0.0mm 0 W/m2
22:47 44.2 °F /  6.8 °C 42.6 °F /  5.9 °C 30.2in /  1022.4hPa Calm     94% 0in /  0.0mm 0 W/m2
22:52 44.2 °F /  6.8 °C 42.6 °F /  5.9 °C 30.2in /  1022.4hPa Calm     94% 0in /  0.0mm 0 W/m2
22:57 44.1 °F /  6.7 °C 42.4 °F /  5.8 °C 30.2in /  1022.4hPa Calm     94% 0in /  0.0mm 0 W/m2
23:02 44.1 °F /  6.7 °C 42.4 °F /  5.8 °C 30.2in /  1022.4hPa Calm     94% 0in /  0.0mm 0 W/m2
23:07 44.2 °F /  6.8 °C 43 °F /  6.1 °C 30.2in /  1022.0hPa Calm     95% 0in /  0.0mm 0 W/m2
23:12 44.2 °F /  6.8 °C 43 °F /  6.1 °C 30.2in /  1022.0hPa Calm     95% 0in /  0.0mm 0 W/m2
23:17 44.4 °F /  6.9 °C 43.2 °F /  6.2 °C 30.2in /  1022.0hPa Calm     95% 0in /  0.0mm 0 W/m2
23:22 44.2 °F /  6.8 °C 43 °F /  6.1 °C 30.2in /  1022.0hPa Calm     95% 0in /  0.0mm 0 W/m2
23:27 44.2 °F /  6.8 °C 43 °F /  6.1 °C 30.2in /  1022.0hPa Calm     95% 0in /  0.0mm 0 W/m2
23:32 44.2 °F /  6.8 °C 43 °F /  6.1 °C 30.2in /  1022.0hPa Calm     95% 0in /  0.0mm 0 W/m2
23:38 44.2 °F /  6.8 °C 43 °F /  6.1 °C 30.2in /  1021.7hPa Calm     95% 0in /  0.0mm 0 W/m2
23:43 44.1 °F /  6.7 °C 42.8 °F /  6 °C 30.2in /  1021.7hPa Calm     95% 0in /  0.0mm 0 W/m2
23:48 44.1 °F /  6.7 °C 42.8 °F /  6 °C 30.2in /  1021.7hPa Calm     95% 0in /  0.0mm 0 W/m2
23:53 43.9 °F /  6.6 °C 42.6 °F /  5.9 °C 30.2in /  1021.7hPa Calm     95% 0in /  0.0mm 0 W/m2
23:58 43.7 °F /  6.5 °C 42.4 °F /  5.8 °C 30.2in /  1021.7hPa Calm     95% 0in /  0.0mm 0 W/m2
Juneau County Weather
Compliments of Weather Underground - 4 mb